KLAF

Purdue University Airport

Lafayette, Indiana, USA
METAR KLAF 212254Z 33009KT 10SM FEW080 23/18 A2990 RMK AO2 SLP120 T02330178
Observed Flight Rules
Aug-21 @ 22:54 UTC (53 minutes ago) Visual Flight Rules
Wind Visibility Clouds
330° at 9 knots 10 miles
  • Few at 8,000' AGL
Temperatures Readings
Current 23°C / 73°F
Dewpoint 18°C / 64°F
Humidity 74%
Altimeter 29.9" Hg
Pressure 1012 hPa
Elevation 182
METAR KLAF 212254Z 33009KT 10SM FEW080 23/18 A2990 RMK AO2 SLP120 T02330178
Observed Flight Rules
Aug-21 @ 22:54 UTC
(53 minutes ago)
VFR
Wind Visibility
330° at 9 knots 10 miles
Clouds
  • Few at 8,000' AGL
Temperature Dewpoint
23°C / 73°F 18°C / 64°F
Humidity Altimeter Pressure
74% 29.9" Hg 1012 hPa